createdAt,value
2019-03-01T09:25:51.457Z,992.87
2019-03-01T09:26:54.610Z,992.87
2019-03-01T09:35:59.558Z,992.88
2019-03-01T09:36:59.537Z,992.92
2019-03-01T09:37:59.486Z,992.89
2019-03-01T09:38:59.453Z,992.95
2019-03-01T09:40:05.625Z,992.93
2019-03-01T09:41:01.323Z,992.99
2019-03-01T09:42:03.220Z,992.98
2019-03-01T09:43:01.013Z,992.99
2019-03-01T09:43:59.605Z,993.00
2019-03-01T09:44:59.189Z,993.07
2019-03-01T09:46:05.620Z,993.06
2019-03-01T09:47:05.616Z,993.03
2019-03-01T09:48:08.675Z,993.07
2019-03-01T09:49:06.551Z,993.16
2019-03-01T09:50:05.515Z,993.16
2019-03-01T09:54:57.037Z,993.27
2019-03-01T09:55:59.975Z,993.26
2019-03-01T09:56:30.018Z,993.22
2019-03-01T09:57:30.020Z,993.27
2019-03-01T10:12:53.032Z,993.29
2019-03-01T10:13:52.996Z,993.28
2019-03-01T10:14:42.176Z,993.36
2019-03-01T10:15:42.151Z,993.40
2019-03-01T10:16:42.122Z,993.36
2019-03-01T10:17:30.588Z,993.43
2019-03-01T10:18:30.599Z,993.38
2019-03-01T10:19:30.719Z,993.42
2019-03-01T10:20:30.713Z,993.43
2019-03-01T10:21:08.552Z,993.49
2019-03-01T10:22:08.562Z,993.41
2019-03-01T10:23:08.556Z,993.45
2019-03-01T10:24:08.557Z,993.40
2019-03-01T10:25:09.548Z,993.47
2019-03-01T10:26:09.544Z,993.49
2019-03-01T10:26:40.257Z,993.52
2019-03-01T10:27:40.251Z,993.55
2019-03-01T10:28:40.264Z,993.55
2019-03-01T10:29:40.237Z,993.54
2019-03-01T10:30:40.224Z,993.56
2019-03-01T10:31:40.217Z,993.56
2019-03-01T10:32:40.202Z,993.60
2019-03-01T10:33:40.207Z,993.57
2019-03-01T10:34:40.181Z,993.62
2019-03-01T10:35:40.152Z,993.75
2019-03-01T10:36:40.131Z,993.66
2019-03-01T10:37:40.113Z,993.64
2019-03-01T10:38:40.118Z,993.70
2019-03-01T10:39:40.075Z,993.68
2019-03-01T10:40:40.058Z,993.72
2019-03-01T10:41:40.040Z,993.75
2019-03-01T10:42:40.026Z,993.75
2019-03-01T10:43:40.034Z,993.75
2019-03-01T10:44:39.994Z,993.77
2019-03-01T10:45:39.982Z,993.81
2019-03-01T10:46:39.964Z,993.81
2019-03-01T10:47:39.949Z,993.82
2019-03-01T10:48:39.969Z,993.83
2019-03-01T10:49:39.922Z,993.80
2019-03-01T10:50:39.899Z,993.82
2019-03-01T10:51:39.878Z,993.88
2019-03-01T10:52:39.858Z,993.84
2019-03-01T10:53:39.836Z,993.86
2019-03-01T10:54:39.830Z,993.92
2019-03-01T10:55:39.780Z,993.87
2019-03-01T10:56:39.760Z,993.87
2019-03-01T10:57:39.808Z,993.93
2019-03-01T10:58:30.750Z,993.86
2019-03-01T10:59:30.761Z,993.99
2019-03-01T11:00:30.735Z,993.93
2019-03-01T11:01:02.210Z,993.93
2019-03-01T11:02:02.277Z,994.03
2019-03-01T11:15:02.891Z,994.18
2019-03-01T11:16:06.300Z,994.23
2019-03-01T11:17:01.338Z,994.14
2019-03-01T11:18:01.342Z,994.17
2019-03-01T11:19:01.341Z,994.21
2019-03-01T11:20:01.367Z,994.17
2019-03-01T11:21:01.342Z,994.17
2019-03-01T11:22:01.342Z,994.19
2019-03-01T11:23:01.333Z,994.26
2019-03-01T11:24:01.331Z,994.21
2019-03-01T11:24:32.112Z,993.92
2019-03-01T11:25:32.100Z,994.21
2019-03-01T11:26:23.800Z,994.22
2019-03-01T11:27:23.792Z,994.20
2019-03-01T11:28:27.342Z,994.23
2019-03-01T11:29:25.621Z,994.18
2019-03-01T11:30:25.579Z,994.20
2019-03-01T11:31:25.568Z,994.20
2019-03-01T11:32:25.558Z,994.20
2019-03-01T11:33:25.553Z,994.20
2019-03-01T11:34:25.538Z,994.20
2019-03-01T11:35:25.549Z,994.22
2019-03-01T11:36:25.532Z,994.20
2019-03-01T11:37:25.503Z,994.23
2019-03-01T11:38:25.502Z,994.26
2019-03-01T11:39:25.485Z,994.20
2019-03-01T11:40:25.491Z,994.27
2019-03-01T11:41:25.463Z,994.32
2019-03-01T11:42:25.466Z,994.31
2019-03-01T11:43:25.439Z,994.30
2019-03-01T11:44:25.438Z,994.29
2019-03-01T11:45:25.449Z,994.28
2019-03-01T11:46:25.409Z,994.28
2019-03-01T11:47:25.396Z,994.33
2019-03-01T11:48:25.385Z,994.39
2019-03-01T11:49:25.507Z,994.40
2019-03-01T11:50:25.395Z,994.36
2019-03-01T11:51:25.375Z,994.38
2019-03-01T11:52:25.346Z,994.36
2019-03-01T11:53:25.337Z,994.35
2019-03-01T11:54:25.323Z,994.46
2019-03-01T11:55:25.340Z,994.42
2019-03-01T11:56:25.307Z,994.40
2019-03-01T11:57:25.293Z,994.40
2019-03-01T11:58:25.282Z,994.41
2019-03-01T11:59:25.271Z,994.42
2019-03-01T12:00:25.289Z,994.44
2019-03-01T12:01:25.251Z,994.42
2019-03-01T12:02:25.240Z,994.43
2019-03-01T12:03:25.242Z,994.42
2019-03-01T12:04:25.219Z,994.36
2019-03-01T12:05:25.231Z,994.43
2019-03-01T12:06:25.196Z,994.46
2019-03-01T12:07:25.186Z,994.42
2019-03-01T12:08:25.181Z,994.39
2019-03-01T12:09:25.164Z,994.42
2019-03-01T12:10:25.179Z,994.42
2019-03-01T12:11:25.148Z,994.46
2019-03-01T12:12:25.135Z,994.45
2019-03-01T12:13:25.127Z,994.43
2019-03-01T12:14:25.124Z,994.38
2019-03-01T12:15:25.133Z,994.43
2019-03-01T12:16:25.090Z,994.46
2019-03-01T12:17:25.080Z,994.48
2019-03-01T12:18:25.066Z,994.48
2019-03-01T12:19:25.118Z,994.54
2019-03-01T12:20:25.076Z,994.57
2019-03-01T12:21:25.037Z,994.52
2019-03-01T12:22:25.029Z,994.52
2019-03-01T12:23:25.013Z,994.57
2019-03-01T12:24:25.010Z,994.45
2019-03-01T12:25:24.994Z,994.57
2019-03-01T12:26:25.007Z,994.48
2019-03-01T12:27:24.971Z,994.50
2019-03-01T12:28:24.962Z,994.52
2019-03-01T12:29:24.955Z,994.48
2019-03-01T12:30:24.945Z,994.57
2019-03-01T12:31:24.955Z,994.59
2019-03-01T12:32:24.931Z,994.61
2019-03-01T12:33:24.913Z,994.60
2019-03-01T12:34:24.897Z,994.60
2019-03-01T12:35:24.886Z,994.56
2019-03-01T12:36:24.914Z,994.57
2019-03-01T12:37:24.865Z,994.59
2019-03-01T12:38:24.856Z,994.65
2019-03-01T12:39:24.842Z,994.65
2019-03-01T12:40:24.831Z,994.60
2019-03-01T12:41:24.843Z,994.65
2019-03-01T12:42:24.810Z,994.68
2019-03-01T12:43:24.824Z,994.70
2019-03-01T12:44:24.789Z,994.65
2019-03-01T12:45:24.777Z,994.73
2019-03-01T12:46:24.798Z,994.70
2019-03-01T12:47:24.760Z,994.77
2019-03-01T12:48:24.746Z,994.72
2019-03-01T12:49:24.747Z,994.76
2019-03-01T12:50:24.727Z,994.73
2019-03-01T12:51:24.764Z,994.76
2019-03-01T12:52:24.713Z,994.71
2019-03-01T12:53:24.693Z,994.66
2019-03-01T12:54:24.690Z,994.72
2019-03-01T12:55:24.672Z,994.73
2019-03-01T12:56:24.686Z,994.74
2019-03-01T12:57:24.651Z,994.71
2019-03-01T12:58:24.639Z,994.81
2019-03-01T12:59:24.634Z,994.80
2019-03-01T13:00:24.620Z,994.77
2019-03-01T13:01:24.632Z,994.84
2019-03-01T13:02:24.597Z,994.80
2019-03-01T13:03:24.587Z,994.86
2019-03-01T13:04:24.580Z,994.86
2019-03-01T13:05:25.572Z,994.94
2019-03-01T13:06:24.577Z,994.83
2019-03-01T13:07:24.542Z,994.91
2019-03-01T13:08:24.534Z,994.96
2019-03-01T13:09:26.457Z,994.95
2019-03-01T13:10:24.509Z,995.08
2019-03-01T13:11:24.526Z,995.02
2019-03-01T13:12:26.158Z,994.96
2019-03-01T13:13:24.480Z,995.00
2019-03-01T13:14:24.471Z,994.96
2019-03-01T13:15:24.458Z,994.99
2019-03-01T13:16:26.734Z,995.02
2019-03-01T13:17:24.441Z,995.09
2019-03-01T13:18:24.427Z,995.11
2019-03-01T13:19:26.119Z,995.07
2019-03-01T13:20:24.405Z,995.08
2019-03-01T13:21:24.400Z,995.11
2019-03-01T13:22:24.769Z,995.12
2019-03-01T13:23:24.371Z,995.11
2019-03-01T13:24:24.361Z,995.04
2019-03-01T13:25:28.926Z,995.09
2019-03-01T13:26:24.345Z,995.14
2019-03-01T13:27:24.351Z,995.15
2019-03-01T13:28:24.316Z,995.20
2019-03-01T13:29:24.308Z,995.12
2019-03-01T13:30:24.304Z,995.13
2019-03-01T13:31:24.287Z,995.15
2019-03-01T13:32:24.306Z,995.13
2019-03-01T13:33:24.268Z,995.11
2019-03-01T13:34:24.254Z,995.07
2019-03-01T13:35:26.039Z,995.12
2019-03-01T13:36:24.240Z,995.14
2019-03-01T13:37:24.245Z,995.15
2019-03-01T13:38:24.214Z,995.19
2019-03-01T13:39:24.214Z,995.13
2019-03-01T13:40:25.372Z,995.18
2019-03-01T13:41:25.335Z,995.19
2019-03-01T13:42:24.194Z,995.05
2019-03-01T13:43:27.420Z,995.09
2019-03-01T13:44:24.146Z,995.08
2019-03-01T13:45:24.138Z,995.07
2019-03-01T13:46:26.443Z,995.02
2019-03-01T13:47:25.134Z,995.11
2019-03-01T13:48:24.108Z,995.18
2019-03-01T13:49:26.756Z,995.16
2019-03-01T13:50:25.082Z,995.21
2019-03-01T13:51:24.071Z,995.22
2019-03-01T13:52:26.785Z,995.22
2019-03-01T13:53:25.054Z,995.28
2019-03-01T13:54:24.039Z,995.20
2019-03-01T13:55:24.038Z,995.24
2019-03-01T13:56:24.023Z,995.34
2019-03-01T13:57:24.029Z,995.28
2019-03-01T13:58:27.686Z,995.29
2019-03-01T13:59:23.993Z,995.32
2019-03-01T14:00:23.988Z,995.33
2019-03-01T14:01:27.091Z,995.30
2019-03-01T14:02:23.989Z,995.31
2019-03-01T14:03:27.608Z,995.32
2019-03-01T14:04:23.938Z,995.28
2019-03-01T14:05:23.923Z,995.36
2019-03-01T14:06:23.980Z,995.30
2019-03-01T14:07:23.939Z,995.32
2019-03-01T14:08:23.911Z,995.32
2019-03-01T14:09:27.203Z,995.30
2019-03-01T14:10:23.870Z,995.24
2019-03-01T14:11:23.882Z,995.23
2019-03-01T14:12:23.851Z,995.25
2019-03-01T14:13:23.869Z,995.27
2019-03-01T14:14:27.107Z,995.26
2019-03-01T14:15:23.818Z,995.25
2019-03-01T14:16:23.805Z,995.23
2019-03-01T14:17:24.618Z,995.33
2019-03-01T14:18:23.809Z,995.40
2019-03-01T14:19:23.771Z,995.43
2019-03-01T14:20:23.769Z,995.40
2019-03-01T14:21:23.754Z,995.47
2019-03-01T14:22:23.743Z,995.45
2019-03-01T14:23:24.951Z,995.45
2019-03-01T14:24:25.941Z,995.45
2019-03-01T14:25:24.705Z,995.50
2019-03-01T14:26:23.702Z,995.50
2019-03-01T14:27:26.360Z,995.51
2019-03-01T14:28:24.717Z,995.51
2019-03-01T14:29:23.668Z,995.55
2019-03-01T14:30:25.400Z,995.46
2019-03-01T14:31:24.648Z,995.50
2019-03-01T14:32:23.634Z,995.50
2019-03-01T14:33:23.651Z,995.52
2019-03-01T14:34:23.614Z,995.48
2019-03-01T14:35:25.801Z,995.47
2019-03-01T14:36:23.594Z,995.48
2019-03-01T14:37:23.583Z,995.47
2019-03-01T14:38:23.597Z,995.40
2019-03-01T14:39:23.559Z,995.41
2019-03-01T14:40:23.745Z,995.43
2019-03-01T14:41:23.536Z,995.48
2019-03-01T14:42:23.527Z,995.52
2019-03-01T14:43:23.895Z,995.47
2019-03-01T14:44:23.506Z,995.53
2019-03-01T14:45:25.411Z,995.55
2019-03-01T14:46:23.489Z,995.53
2019-03-01T14:47:23.473Z,995.52
2019-03-01T14:48:23.657Z,995.55
2019-03-01T14:49:23.456Z,995.57
2019-03-01T14:50:23.441Z,995.55
2019-03-01T14:51:23.431Z,995.55
2019-03-01T14:52:23.433Z,995.48
2019-03-01T14:53:23.411Z,995.56
2019-03-01T14:54:23.420Z,995.55
2019-03-01T14:55:24.025Z,995.58
2019-03-01T14:56:23.376Z,995.59
2019-03-01T14:57:23.370Z,995.62
2019-03-01T14:58:23.479Z,995.64
2019-03-01T14:59:23.379Z,995.65
2019-03-01T15:00:23.335Z,995.68
2019-03-01T15:01:26.880Z,995.73
2019-03-01T15:02:23.317Z,995.73
2019-03-01T15:03:23.302Z,995.69
2019-03-01T15:04:28.625Z,995.73
2019-03-01T15:05:24.317Z,995.78
2019-03-01T15:06:23.270Z,995.82
2019-03-01T15:07:23.261Z,995.77
2019-03-01T15:08:23.252Z,995.77
2019-03-01T15:09:23.261Z,995.76
2019-03-01T15:10:23.229Z,995.84
2019-03-01T15:11:23.217Z,995.81
2019-03-01T15:12:23.216Z,995.79
2019-03-01T15:13:23.197Z,995.86
2019-03-01T15:14:23.229Z,995.90
2019-03-01T15:15:26.410Z,995.93
2019-03-01T15:16:24.165Z,995.88
2019-03-01T15:17:23.152Z,995.99
2019-03-01T15:18:25.018Z,995.91
2019-03-01T15:19:23.130Z,996.01
2019-03-01T15:20:24.273Z,995.96
2019-03-01T15:21:23.112Z,996.06
2019-03-01T15:22:23.100Z,995.94
2019-03-01T15:23:24.099Z,996.00
2019-03-01T15:24:23.077Z,996.02
2019-03-01T15:25:23.099Z,995.99
2019-03-01T15:26:26.442Z,996.01
2019-03-01T15:27:23.056Z,996.03
2019-03-01T15:28:23.037Z,996.06
2019-03-01T15:29:23.026Z,996.05
2019-03-01T15:30:23.227Z,996.02
2019-03-01T15:31:23.004Z,996.06
2019-03-01T15:32:22.994Z,996.11
2019-03-01T15:33:22.987Z,996.08
2019-03-01T15:34:24.043Z,996.08
2019-03-01T15:35:22.984Z,996.16
2019-03-01T15:36:22.950Z,996.15
2019-03-01T15:37:22.941Z,996.13
2019-03-01T15:38:23.797Z,996.10
2019-03-01T15:39:22.930Z,996.11
2019-03-01T15:40:22.933Z,996.14
2019-03-01T15:41:22.898Z,996.19
2019-03-01T15:42:22.888Z,996.13
2019-03-01T15:43:22.880Z,996.16
2019-03-01T15:44:22.868Z,996.15
2019-03-01T15:45:22.885Z,996.12
2019-03-01T15:46:22.847Z,996.13
2019-03-01T15:47:23.764Z,996.17
2019-03-01T15:48:22.826Z,996.18
2019-03-01T15:49:23.564Z,996.20
2019-03-01T15:50:23.648Z,996.23
2019-03-01T15:51:22.796Z,996.25
2019-03-01T15:52:22.792Z,996.24
2019-03-01T15:53:25.083Z,996.22
2019-03-01T15:54:22.762Z,996.20
2019-03-01T15:55:22.797Z,996.27
2019-03-01T15:56:22.741Z,996.26
2019-03-01T15:57:22.734Z,996.35
2019-03-01T15:58:22.728Z,996.40
2019-03-01T15:59:22.711Z,996.44
2019-03-01T16:00:25.629Z,996.30
2019-03-01T16:01:23.714Z,996.30
2019-03-01T16:02:22.679Z,996.29
2019-03-01T16:03:22.668Z,996.26
2019-03-01T16:04:22.657Z,996.31
2019-03-01T16:05:22.656Z,996.29
2019-03-01T16:06:22.662Z,996.30
2019-03-01T16:07:22.626Z,996.36
2019-03-01T16:08:22.615Z,996.31
2019-03-01T16:09:25.390Z,996.32
2019-03-01T16:10:22.604Z,996.34
2019-03-01T16:11:22.610Z,996.32
2019-03-01T16:12:22.573Z,996.35
2019-03-01T16:13:22.563Z,996.43
2019-03-01T16:14:24.192Z,996.44
2019-03-01T16:15:22.544Z,996.49
2019-03-01T16:16:22.553Z,996.51
2019-03-01T16:17:24.625Z,996.52
2019-03-01T16:18:22.510Z,996.51
2019-03-01T16:19:22.502Z,996.54
2019-03-01T16:20:25.140Z,996.60
2019-03-01T16:21:23.509Z,996.55
2019-03-01T16:22:22.474Z,996.54
2019-03-01T16:23:22.461Z,996.53
2019-03-01T16:24:22.448Z,996.66
2019-03-01T16:25:22.441Z,996.64
2019-03-01T16:26:29.638Z,996.62
2019-03-01T16:27:23.417Z,996.68
2019-03-01T16:28:22.410Z,996.67
2019-03-01T16:29:22.400Z,996.58
2019-03-01T16:30:22.385Z,996.60
2019-03-01T16:31:22.400Z,996.74
2019-03-01T16:32:22.388Z,996.68
2019-03-01T16:33:25.765Z,996.77
2019-03-01T16:34:22.349Z,996.75
2019-03-01T16:35:22.340Z,996.74
2019-03-01T16:36:23.401Z,996.70
2019-03-01T16:37:22.670Z,996.69
2019-03-01T16:38:22.302Z,996.73
2019-03-01T16:39:23.834Z,996.72
2019-03-01T16:40:22.282Z,996.75
2019-03-01T16:41:22.299Z,996.80
2019-03-01T16:42:22.261Z,996.81
2019-03-01T16:43:22.251Z,996.75
2019-03-01T16:44:22.243Z,996.81
2019-03-01T16:45:22.231Z,996.86
2019-03-01T16:46:22.253Z,996.87
2019-03-01T16:47:23.336Z,996.86
2019-03-01T16:48:22.203Z,996.90
2019-03-01T16:49:23.579Z,996.92
2019-03-01T16:50:22.178Z,996.92
2019-03-01T16:51:22.166Z,996.97
2019-03-01T16:52:22.180Z,997.03
2019-03-01T16:53:22.145Z,996.98
2019-03-01T16:54:22.134Z,996.96
2019-03-01T16:55:24.491Z,997.01
2019-03-01T16:56:23.122Z,997.09
2019-03-01T16:57:22.128Z,997.06
2019-03-01T16:58:24.496Z,997.07
2019-03-01T16:59:23.080Z,997.09
2019-03-01T17:00:22.096Z,997.09
2019-03-01T17:01:22.088Z,997.01
2019-03-01T17:02:22.098Z,997.10
2019-03-01T17:03:22.041Z,997.03
2019-03-01T17:04:27.151Z,997.16
2019-03-01T17:05:23.019Z,997.17
2019-03-01T17:06:22.007Z,997.16
2019-03-01T17:07:25.064Z,997.19
2019-03-01T17:08:22.986Z,997.15
2019-03-01T17:09:21.977Z,997.12
2019-03-01T17:10:21.969Z,997.13
2019-03-01T17:11:21.958Z,997.11
2019-03-01T17:12:22.528Z,997.14
2019-03-01T17:13:23.522Z,997.09
2019-03-01T17:14:21.925Z,997.11
2019-03-01T17:15:21.922Z,997.06
2019-03-01T17:16:23.835Z,997.05
2019-03-01T17:17:21.894Z,997.05
2019-03-01T17:18:21.903Z,997.12
2019-03-01T17:19:23.725Z,997.10
2019-03-01T17:20:21.883Z,997.12
2019-03-01T17:21:21.850Z,997.11
2019-03-01T17:22:23.256Z,997.11
2019-03-01T17:23:21.901Z,997.15
2019-03-01T17:24:21.822Z,997.13
2019-03-01T17:25:23.369Z,997.22
2019-03-01T17:26:21.798Z,997.18
2019-03-01T17:27:21.788Z,997.21
2019-03-01T17:28:24.264Z,997.17
2019-03-01T17:29:21.769Z,997.24
2019-03-01T17:30:21.763Z,997.25
2019-03-01T17:31:23.248Z,997.21
2019-03-01T17:32:21.738Z,997.25
2019-03-01T17:33:21.773Z,997.27
2019-03-01T17:34:25.174Z,997.27
2019-03-01T17:35:21.702Z,997.25
2019-03-01T17:36:21.694Z,997.26
2019-03-01T17:37:21.682Z,997.26
2019-03-01T17:38:21.705Z,997.32
2019-03-01T17:39:21.662Z,997.24
2019-03-01T17:40:21.817Z,997.24
2019-03-01T17:41:21.640Z,997.30
2019-03-01T17:42:21.634Z,997.18
2019-03-01T17:43:21.644Z,997.20
2019-03-01T17:44:21.624Z,997.19
2019-03-01T17:45:22.252Z,997.19
2019-03-01T17:46:21.587Z,997.22
2019-03-01T17:47:21.578Z,997.18
2019-03-01T17:48:22.325Z,997.14
2019-03-01T17:49:21.578Z,997.20
2019-03-01T17:50:21.549Z,997.21
2019-03-01T17:51:21.859Z,997.15
2019-03-01T17:52:21.526Z,997.15
2019-03-01T17:53:21.552Z,997.23
2019-03-01T17:54:22.267Z,997.22
2019-03-01T17:55:21.493Z,997.20
2019-03-01T17:56:21.948Z,997.21
2019-03-01T17:57:21.471Z,997.28
2019-03-01T17:58:21.515Z,997.24
2019-03-01T17:59:23.283Z,997.25
2019-03-01T18:00:21.784Z,997.28
2019-03-01T18:01:21.436Z,997.34
2019-03-01T18:02:21.431Z,997.25
2019-03-01T18:03:21.409Z,997.30
2019-03-01T18:04:21.419Z,997.30
2019-03-01T18:05:21.393Z,997.32
2019-03-01T18:06:21.416Z,997.31
2019-03-01T18:07:23.819Z,997.26
2019-03-01T18:08:22.355Z,997.29
2019-03-01T18:09:21.369Z,997.30
2019-03-01T18:10:21.341Z,997.33
2019-03-01T18:11:21.326Z,997.31
2019-03-01T18:12:21.358Z,997.35
2019-03-01T18:13:21.309Z,997.41
2019-03-01T18:14:21.328Z,997.41
2019-03-01T18:15:23.347Z,997.47
2019-03-01T18:16:22.142Z,997.49
2019-03-01T18:17:21.262Z,997.42
2019-03-01T18:18:21.252Z,997.42
2019-03-01T18:19:23.660Z,997.51
2019-03-01T18:20:22.231Z,997.56
2019-03-01T18:21:21.221Z,997.55
2019-03-01T18:22:23.004Z,997.58
2019-03-01T18:23:21.204Z,997.62
2019-03-01T18:24:21.211Z,997.57
2019-03-01T18:25:22.744Z,997.61
2019-03-01T18:26:22.976Z,997.65
2019-03-01T18:27:21.159Z,997.62
2019-03-01T18:28:21.148Z,997.66
2019-03-01T18:29:21.159Z,997.64
2019-03-01T18:30:21.129Z,997.72
2019-03-01T18:31:21.114Z,997.73
2019-03-01T18:32:21.105Z,997.70
2019-03-01T18:33:22.775Z,997.75
2019-03-01T18:34:21.109Z,997.75
2019-03-01T18:35:21.073Z,997.79
2019-03-01T18:36:21.062Z,997.84
2019-03-01T18:37:21.051Z,997.70
2019-03-01T18:38:21.043Z,997.78
2019-03-01T18:39:21.065Z,997.83
2019-03-01T18:40:21.020Z,997.81
2019-03-01T18:41:24.163Z,997.81
2019-03-01T18:42:21.998Z,997.76
2019-03-01T18:43:20.992Z,997.80
2019-03-01T18:44:22.346Z,997.77
2019-03-01T18:45:20.994Z,997.75
2019-03-01T18:46:20.963Z,997.75
2019-03-01T18:47:20.949Z,997.79
2019-03-01T18:48:20.939Z,997.77
2019-03-01T18:49:21.031Z,997.81
2019-03-01T18:50:20.937Z,997.75
2019-03-01T18:51:20.907Z,997.71
2019-03-01T18:52:20.893Z,997.76
2019-03-01T18:53:20.887Z,997.74
2019-03-01T18:54:20.876Z,997.70
2019-03-01T18:55:20.885Z,997.76
2019-03-01T18:56:20.867Z,997.80
2019-03-01T18:57:20.841Z,997.72
2019-03-01T18:58:20.831Z,997.71
2019-03-01T18:59:21.670Z,997.78
2019-03-01T19:00:20.832Z,997.71
2019-03-01T19:01:20.798Z,997.76
2019-03-01T19:02:20.791Z,997.84
2019-03-01T19:03:20.780Z,997.77
2019-03-01T19:04:29.336Z,997.80
2019-03-01T19:05:21.778Z,997.80
2019-03-01T19:06:20.749Z,997.75
2019-03-01T19:07:20.737Z,997.83
2019-03-01T19:08:20.730Z,997.83
2019-03-01T19:09:20.715Z,997.86
2019-03-01T19:10:24.090Z,997.86
2019-03-01T19:11:21.695Z,997.84
2019-03-01T19:12:20.683Z,997.92
2019-03-01T19:13:24.056Z,997.85
2019-03-01T19:14:20.664Z,997.90
2019-03-01T19:15:20.688Z,997.87
2019-03-01T19:16:20.642Z,997.86
2019-03-01T19:17:20.631Z,998.00
2019-03-01T19:18:20.623Z,997.92
2019-03-01T19:19:24.462Z,997.99
2019-03-01T19:20:21.621Z,997.93
2019-03-01T19:21:20.591Z,997.97
2019-03-01T19:22:20.590Z,997.97
2019-03-01T19:23:20.568Z,997.91
2019-03-01T19:24:20.558Z,997.92
2019-03-01T19:25:21.745Z,997.95
2019-03-01T19:26:20.559Z,997.99
2019-03-01T19:27:20.525Z,997.99
2019-03-01T19:28:23.625Z,997.98
2019-03-01T19:29:21.506Z,998.03
2019-03-01T19:30:20.495Z,997.96
2019-03-01T19:31:21.722Z,997.99
2019-03-01T19:32:23.642Z,997.98
2019-03-01T19:33:21.465Z,997.99
2019-03-01T19:34:20.462Z,997.98
2019-03-01T19:35:20.450Z,997.98
2019-03-01T19:36:20.453Z,997.97
2019-03-01T19:37:20.419Z,998.00
2019-03-01T19:38:21.831Z,997.94
2019-03-01T19:39:20.400Z,997.95
2019-03-01T19:40:20.390Z,997.99
2019-03-01T19:41:22.873Z,997.96
2019-03-01T19:42:20.369Z,997.93
2019-03-01T19:43:20.361Z,997.94
2019-03-01T19:44:20.347Z,997.97
2019-03-01T19:45:20.336Z,997.94
2019-03-01T19:46:20.334Z,997.96
2019-03-01T19:47:20.336Z,997.96
2019-03-01T19:48:20.317Z,997.99
2019-03-01T19:49:20.296Z,997.91
2019-03-01T19:50:21.833Z,997.96
2019-03-01T19:51:20.274Z,997.87
2019-03-01T19:52:20.291Z,997.86
2019-03-01T19:53:21.531Z,997.87
2019-03-01T19:54:20.242Z,997.84
2019-03-01T19:55:20.231Z,997.86
2019-03-01T19:56:25.000Z,997.85
2019-03-01T19:57:21.234Z,997.86
2019-03-01T19:58:20.209Z,997.93
2019-03-01T19:59:20.189Z,997.84
2019-03-01T20:00:20.183Z,997.85
2019-03-01T20:01:20.169Z,997.90
2019-03-01T20:02:20.181Z,997.85
2019-03-01T20:03:20.149Z,997.83
2019-03-01T20:04:21.261Z,997.88
2019-03-01T20:05:20.126Z,997.83
2019-03-01T20:06:20.115Z,997.87
2019-03-01T20:07:20.802Z,997.90
2019-03-01T20:08:20.094Z,997.94
2019-03-01T20:09:20.088Z,997.96
2019-03-01T20:10:20.074Z,997.93
2019-03-01T20:11:20.066Z,997.94
2019-03-01T20:12:20.078Z,998.02
2019-03-01T20:13:20.042Z,998.01
2019-03-01T20:14:20.032Z,997.94
2019-03-01T20:15:20.665Z,997.96
2019-03-01T20:16:22.621Z,997.97
2019-03-01T20:17:20.024Z,998.03
2019-03-01T20:18:19.990Z,998.02
2019-03-01T20:19:20.857Z,998.02
2019-03-01T20:20:19.971Z,997.99
2019-03-01T20:21:19.959Z,998.00
2019-03-01T20:22:20.011Z,997.97
2019-03-01T20:23:19.939Z,997.97
2019-03-01T20:24:19.927Z,997.98
2019-03-01T20:25:19.916Z,997.98
2019-03-01T20:26:19.905Z,997.99
2019-03-01T20:27:19.923Z,997.94
2019-03-01T20:28:19.885Z,997.91
2019-03-01T20:29:19.876Z,997.92
2019-03-01T20:30:19.873Z,997.94
2019-03-01T20:31:19.854Z,997.97
2019-03-01T20:32:19.843Z,997.92
2019-03-01T20:33:23.341Z,997.95
2019-03-01T20:34:20.825Z,997.93
2019-03-01T20:35:19.811Z,997.90
2019-03-01T20:36:19.801Z,997.96
2019-03-01T20:37:19.789Z,997.88
2019-03-01T20:38:19.806Z,997.90
2019-03-01T20:39:19.772Z,997.85
2019-03-01T20:40:22.711Z,997.87
2019-03-01T20:41:20.750Z,997.85
2019-03-01T20:42:23.039Z,997.83
2019-03-01T20:43:19.750Z,997.81
2019-03-01T20:44:19.908Z,997.87
2019-03-01T20:45:19.707Z,997.84
2019-03-01T20:46:19.694Z,997.88
2019-03-01T20:47:19.688Z,997.84
2019-03-01T20:48:19.701Z,997.86
2019-03-01T20:49:19.663Z,997.90
2019-03-01T20:50:19.654Z,997.86
2019-03-01T20:51:26.242Z,997.90
2019-03-01T20:52:20.632Z,997.84
2019-03-01T20:53:19.644Z,997.85
2019-03-01T20:54:21.872Z,997.85
2019-03-01T20:55:20.599Z,997.86
2019-03-01T20:56:19.591Z,997.88
2019-03-01T20:57:19.580Z,997.78
2019-03-01T20:58:19.594Z,997.79
2019-03-01T20:59:19.578Z,997.78
2019-03-01T21:00:22.609Z,997.79
2019-03-01T21:01:20.584Z,997.77
2019-03-01T21:02:19.540Z,997.79
2019-03-01T21:03:19.540Z,997.84
2019-03-01T21:04:19.509Z,997.82
2019-03-01T21:05:19.497Z,997.87
2019-03-01T21:06:19.821Z,997.84
2019-03-01T21:07:19.476Z,997.91
2019-03-01T21:08:19.488Z,997.91
2019-03-01T21:09:19.456Z,997.88
2019-03-01T21:10:19.453Z,997.84
2019-03-01T21:11:21.725Z,997.90
2019-03-01T21:12:20.423Z,997.88
2019-03-01T21:13:19.453Z,997.93
2019-03-01T21:14:19.406Z,997.98
2019-03-01T21:15:21.351Z,997.92
2019-03-01T21:16:19.385Z,997.95
2019-03-01T21:17:20.265Z,998.01
2019-03-01T21:18:19.383Z,997.99
2019-03-01T21:19:19.367Z,998.03
2019-03-01T21:20:19.824Z,998.03
2019-03-01T21:21:19.328Z,998.05
2019-03-01T21:22:19.318Z,998.10
2019-03-01T21:23:19.335Z,998.06
2019-03-01T21:24:19.298Z,998.09
2019-03-01T21:25:19.668Z,998.05
2019-03-01T21:26:19.278Z,998.07
2019-03-01T21:27:19.267Z,997.99
2019-03-01T21:28:19.257Z,997.99
2019-03-01T21:29:19.268Z,997.98
2019-03-01T21:30:20.713Z,998.00
2019-03-01T21:31:19.226Z,997.98
2019-03-01T21:32:19.213Z,998.06
2019-03-01T21:33:19.204Z,998.07
2019-03-01T21:34:19.215Z,998.01
2019-03-01T21:35:19.185Z,998.03
2019-03-01T21:36:19.171Z,997.99
2019-03-01T21:37:19.165Z,998.01
2019-03-01T21:38:19.151Z,997.97
2019-03-01T21:39:20.650Z,997.99
2019-03-01T21:40:19.135Z,997.96
2019-03-01T21:41:19.122Z,998.00
2019-03-01T21:42:20.292Z,998.01
2019-03-01T21:43:19.101Z,997.94
2019-03-01T21:44:19.112Z,997.93
2019-03-01T21:45:21.502Z,997.93
2019-03-01T21:46:19.068Z,997.93
2019-03-01T21:47:19.059Z,998.01
2019-03-01T21:48:22.026Z,998.01
2019-03-01T21:49:20.060Z,997.99
2019-03-01T21:50:19.028Z,997.95
2019-03-01T21:51:19.954Z,997.94
2019-03-01T21:52:19.007Z,997.98
2019-03-01T21:53:19.001Z,997.93
2019-03-01T21:54:19.008Z,997.90
2019-03-01T21:55:18.985Z,997.96
2019-03-01T21:56:18.965Z,997.95
2019-03-01T21:57:18.952Z,997.94
2019-03-01T21:58:18.944Z,997.97
2019-03-01T21:59:18.975Z,998.00
2019-03-01T22:00:18.925Z,997.96
2019-03-01T22:01:18.911Z,998.05
2019-03-01T22:02:18.911Z,997.98
2019-03-01T22:03:18.890Z,998.04
2019-03-01T22:04:18.902Z,998.00
2019-03-01T22:05:18.868Z,998.04
2019-03-01T22:06:20.639Z,998.02
2019-03-01T22:07:18.851Z,997.99
2019-03-01T22:08:18.842Z,998.02
2019-03-01T22:09:20.615Z,998.00
2019-03-01T22:10:19.819Z,998.06
2019-03-01T22:11:20.844Z,998.01
2019-03-01T22:12:20.902Z,998.02
2019-03-01T22:13:19.785Z,998.08
2019-03-01T22:14:18.815Z,998.05
2019-03-01T22:15:21.471Z,998.07
2019-03-01T22:16:19.754Z,998.04
2019-03-01T22:17:18.762Z,998.10
2019-03-01T22:18:20.427Z,998.07
2019-03-01T22:19:18.747Z,998.06
2019-03-01T22:20:18.727Z,998.08
2019-03-01T22:21:22.620Z,998.05
2019-03-01T22:22:18.694Z,998.06
2019-03-01T22:23:18.686Z,998.06
2019-03-01T22:24:18.672Z,998.11
2019-03-01T22:25:18.682Z,998.04
2019-03-01T22:26:18.652Z,998.07
2019-03-01T22:27:21.583Z,998.12
2019-03-01T22:28:21.258Z,998.11
2019-03-01T22:29:18.625Z,998.08